sensor_id;sensor_type;location;lat;lon;timestamp;P1;durP1;ratioP1;P2;durP2;ratioP2
42666;SDS011;28280;49.646;14.130;2023-03-01T00:10:00;16.40;;;9.48;;
42666;SDS011;28280;49.646;14.130;2023-03-01T00:20:22;18.00;;;9.68;;
42666;SDS011;28280;49.646;14.130;2023-03-01T00:30:44;17.98;;;9.57;;
42666;SDS011;28280;49.646;14.130;2023-03-01T00:41:07;18.73;;;9.85;;
42666;SDS011;28280;49.646;14.130;2023-03-01T00:51:30;17.40;;;10.50;;
42666;SDS011;28280;49.646;14.130;2023-03-01T01:01:52;18.73;;;9.00;;
42666;SDS011;28280;49.646;14.130;2023-03-01T01:12:15;18.17;;;9.88;;
42666;SDS011;28280;49.646;14.130;2023-03-01T01:22:36;20.10;;;9.90;;
42666;SDS011;28280;49.646;14.130;2023-03-01T01:32:58;21.50;;;10.70;;
42666;SDS011;28280;49.646;14.130;2023-03-01T01:43:24;20.30;;;10.93;;
42666;SDS011;28280;49.646;14.130;2023-03-01T01:53:51;18.75;;;9.75;;
42666;SDS011;28280;49.646;14.130;2023-03-01T02:04:16;17.88;;;10.00;;
42666;SDS011;28280;49.646;14.130;2023-03-01T02:14:38;22.60;;;11.23;;
42666;SDS011;28280;49.646;14.130;2023-03-01T02:35:23;22.63;;;11.55;;
42666;SDS011;28280;49.646;14.130;2023-03-01T02:45:50;22.27;;;11.57;;
42666;SDS011;28280;49.646;14.130;2023-03-01T03:06:34;22.42;;;11.02;;
42666;SDS011;28280;49.646;14.130;2023-03-01T03:16:56;22.00;;;10.60;;
42666;SDS011;28280;49.646;14.130;2023-03-01T03:27:17;19.58;;;11.43;;
42666;SDS011;28280;49.646;14.130;2023-03-01T03:37:39;19.15;;;11.38;;
42666;SDS011;28280;49.646;14.130;2023-03-01T03:48:20;21.05;;;11.90;;
42666;SDS011;28280;49.646;14.130;2023-03-01T03:58:41;20.52;;;10.82;;
42666;SDS011;28280;49.646;14.130;2023-03-01T04:09:04;23.83;;;11.30;;
42666;SDS011;28280;49.646;14.130;2023-03-01T04:19:25;22.60;;;11.90;;
42666;SDS011;28280;49.646;14.130;2023-03-01T04:29:47;22.48;;;11.40;;
42666;SDS011;28280;49.646;14.130;2023-03-01T04:40:09;20.83;;;11.45;;
42666;SDS011;28280;49.646;14.130;2023-03-01T04:50:36;20.38;;;11.25;;
42666;SDS011;28280;49.646;14.130;2023-03-01T05:00:57;25.08;;;12.35;;
42666;SDS011;28280;49.646;14.130;2023-03-01T05:11:20;23.38;;;11.82;;
42666;SDS011;28280;49.646;14.130;2023-03-01T05:21:44;22.30;;;12.02;;
42666;SDS011;28280;49.646;14.130;2023-03-01T05:32:25;22.70;;;12.38;;
42666;SDS011;28280;49.646;14.130;2023-03-01T05:42:55;20.70;;;11.68;;
42666;SDS011;28280;49.646;14.130;2023-03-01T05:53:18;25.08;;;12.68;;
42666;SDS011;28280;49.646;14.130;2023-03-01T06:03:42;22.67;;;12.82;;
42666;SDS011;28280;49.646;14.130;2023-03-01T06:14:03;24.13;;;12.20;;
42666;SDS011;28280;49.646;14.130;2023-03-01T06:24:25;22.85;;;12.43;;
42666;SDS011;28280;49.646;14.130;2023-03-01T06:34:46;21.58;;;11.50;;
42666;SDS011;28280;49.646;14.130;2023-03-01T06:45:08;22.40;;;12.23;;
42666;SDS011;28280;49.646;14.130;2023-03-01T06:55:30;23.98;;;12.82;;
42666;SDS011;28280;49.646;14.130;2023-03-01T07:05:51;21.17;;;11.55;;
42666;SDS011;28280;49.646;14.130;2023-03-01T07:16:13;27.70;;;12.88;;
42666;SDS011;28280;49.646;14.130;2023-03-01T07:26:35;22.73;;;11.38;;
42666;SDS011;28280;49.646;14.130;2023-03-01T07:36:57;21.10;;;10.93;;
42666;SDS011;28280;49.646;14.130;2023-03-01T07:47:18;21.73;;;12.75;;
42666;SDS011;28280;49.646;14.130;2023-03-01T07:57:40;23.80;;;12.52;;
42666;SDS011;28280;49.646;14.130;2023-03-01T08:08:01;20.67;;;12.23;;
42666;SDS011;28280;49.646;14.130;2023-03-01T08:18:22;23.60;;;13.13;;
42666;SDS011;28280;49.646;14.130;2023-03-01T08:28:44;22.10;;;11.93;;
42666;SDS011;28280;49.646;14.130;2023-03-01T08:39:07;24.67;;;13.43;;
42666;SDS011;28280;49.646;14.130;2023-03-01T08:49:29;25.38;;;13.20;;
42666;SDS011;28280;49.646;14.130;2023-03-01T08:59:50;26.70;;;13.57;;
42666;SDS011;28280;49.646;14.130;2023-03-01T09:10:11;26.13;;;13.77;;
42666;SDS011;28280;49.646;14.130;2023-03-01T09:20:32;26.27;;;13.55;;
42666;SDS011;28280;49.646;14.130;2023-03-01T09:30:57;27.02;;;13.45;;
42666;SDS011;28280;49.646;14.130;2023-03-01T09:51:56;23.88;;;13.10;;
42666;SDS011;28280;49.646;14.130;2023-03-01T10:02:23;26.30;;;13.23;;
42666;SDS011;28280;49.646;14.130;2023-03-01T10:13:00;23.85;;;12.88;;
42666;SDS011;28280;49.646;14.130;2023-03-01T10:23:28;22.35;;;11.70;;
42666;SDS011;28280;49.646;14.130;2023-03-01T10:33:51;23.58;;;12.25;;
42666;SDS011;28280;49.646;14.130;2023-03-01T10:44:34;20.15;;;11.73;;
42666;SDS011;28280;49.646;14.130;2023-03-01T11:26:53;22.00;;;11.95;;
42666;SDS011;28280;49.646;14.130;2023-03-01T11:48:07;17.08;;;10.38;;
42666;SDS011;28280;49.646;14.130;2023-03-01T12:42:00;18.92;;;9.82;;
42666;SDS011;28280;49.646;14.130;2023-03-01T13:13:29;16.55;;;9.98;;
42666;SDS011;28280;49.646;14.130;2023-03-01T13:23:52;19.02;;;10.02;;
42666;SDS011;28280;49.646;14.130;2023-03-01T13:45:05;21.20;;;10.30;;
42666;SDS011;28280;49.646;14.130;2023-03-01T13:55:55;15.52;;;9.38;;
42666;SDS011;28280;49.646;14.130;2023-03-01T14:06:21;20.50;;;9.88;;
42666;SDS011;28280;49.646;14.130;2023-03-01T14:27:36;17.27;;;10.50;;
42666;SDS011;28280;49.646;14.130;2023-03-01T14:38:03;16.30;;;9.63;;
42666;SDS011;28280;49.646;14.130;2023-03-01T14:48:24;18.80;;;9.73;;
42666;SDS011;28280;49.646;14.130;2023-03-01T14:58:46;17.40;;;9.60;;
42666;SDS011;28280;49.646;14.130;2023-03-01T15:09:14;17.17;;;10.10;;
42666;SDS011;28280;49.646;14.130;2023-03-01T15:19:39;17.90;;;9.00;;
42666;SDS011;28280;49.646;14.130;2023-03-01T15:30:01;14.40;;;9.02;;
42666;SDS011;28280;49.646;14.130;2023-03-01T15:40:25;16.38;;;9.57;;
42666;SDS011;28280;49.646;14.130;2023-03-01T15:50:55;17.02;;;9.57;;
42666;SDS011;28280;49.646;14.130;2023-03-01T16:01:18;13.27;;;8.63;;
42666;SDS011;28280;49.646;14.130;2023-03-01T16:11:39;15.82;;;9.20;;
42666;SDS011;28280;49.646;14.130;2023-03-01T16:22:03;15.23;;;9.43;;
42666;SDS011;28280;49.646;14.130;2023-03-01T16:32:24;13.95;;;8.55;;
42666;SDS011;28280;49.646;14.130;2023-03-01T16:42:47;12.80;;;8.15;;
42666;SDS011;28280;49.646;14.130;2023-03-01T16:53:08;17.10;;;8.68;;
42666;SDS011;28280;49.646;14.130;2023-03-01T17:03:30;14.63;;;9.00;;
42666;SDS011;28280;49.646;14.130;2023-03-01T17:13:51;15.23;;;8.45;;
42666;SDS011;28280;49.646;14.130;2023-03-01T17:24:12;14.70;;;8.13;;
42666;SDS011;28280;49.646;14.130;2023-03-01T17:34:34;16.38;;;8.63;;
42666;SDS011;28280;49.646;14.130;2023-03-01T17:44:55;13.52;;;8.65;;
42666;SDS011;28280;49.646;14.130;2023-03-01T17:55:16;15.32;;;9.10;;
42666;SDS011;28280;49.646;14.130;2023-03-01T18:05:37;13.73;;;8.38;;
42666;SDS011;28280;49.646;14.130;2023-03-01T18:15:58;17.80;;;9.32;;
42666;SDS011;28280;49.646;14.130;2023-03-01T18:26:21;14.55;;;9.10;;
42666;SDS011;28280;49.646;14.130;2023-03-01T18:36:44;14.68;;;8.30;;
42666;SDS011;28280;49.646;14.130;2023-03-01T18:47:26;15.00;;;8.93;;
42666;SDS011;28280;49.646;14.130;2023-03-01T18:57:48;14.18;;;8.80;;
42666;SDS011;28280;49.646;14.130;2023-03-01T19:08:09;17.40;;;8.77;;
42666;SDS011;28280;49.646;14.130;2023-03-01T19:18:30;16.13;;;8.80;;
42666;SDS011;28280;49.646;14.130;2023-03-01T19:28:51;15.43;;;8.75;;
42666;SDS011;28280;49.646;14.130;2023-03-01T19:39:13;17.30;;;9.27;;
42666;SDS011;28280;49.646;14.130;2023-03-01T19:49:34;15.93;;;9.48;;
42666;SDS011;28280;49.646;14.130;2023-03-01T19:59:57;15.77;;;8.43;;
42666;SDS011;28280;49.646;14.130;2023-03-01T20:10:19;14.00;;;8.60;;
42666;SDS011;28280;49.646;14.130;2023-03-01T20:20:40;17.77;;;9.50;;
42666;SDS011;28280;49.646;14.130;2023-03-01T20:31:09;15.15;;;9.05;;
42666;SDS011;28280;49.646;14.130;2023-03-01T20:41:31;17.60;;;10.48;;
42666;SDS011;28280;49.646;14.130;2023-03-01T20:51:52;17.48;;;9.50;;
42666;SDS011;28280;49.646;14.130;2023-03-01T21:02:13;15.27;;;9.18;;
42666;SDS011;28280;49.646;14.130;2023-03-01T21:12:34;17.45;;;9.82;;
42666;SDS011;28280;49.646;14.130;2023-03-01T21:22:56;15.77;;;9.18;;
42666;SDS011;28280;49.646;14.130;2023-03-01T21:33:17;18.30;;;10.48;;
42666;SDS011;28280;49.646;14.130;2023-03-01T21:43:39;17.88;;;10.32;;
42666;SDS011;28280;49.646;14.130;2023-03-01T21:54:01;18.35;;;10.32;;
42666;SDS011;28280;49.646;14.130;2023-03-01T22:04:23;19.98;;;10.15;;
42666;SDS011;28280;49.646;14.130;2023-03-01T22:14:44;18.95;;;10.27;;
42666;SDS011;28280;49.646;14.130;2023-03-01T22:25:06;19.52;;;11.07;;
42666;SDS011;28280;49.646;14.130;2023-03-01T22:35:28;23.20;;;10.55;;
42666;SDS011;28280;49.646;14.130;2023-03-01T22:45:49;19.60;;;10.38;;
42666;SDS011;28280;49.646;14.130;2023-03-01T22:56:12;18.63;;;10.00;;
42666;SDS011;28280;49.646;14.130;2023-03-01T23:06:35;18.92;;;10.98;;
42666;SDS011;28280;49.646;14.130;2023-03-01T23:17:10;21.15;;;11.15;;
42666;SDS011;28280;49.646;14.130;2023-03-01T23:27:34;21.55;;;10.98;;
42666;SDS011;28280;49.646;14.130;2023-03-01T23:37:56;20.65;;;11.38;;
42666;SDS011;28280;49.646;14.130;2023-03-01T23:48:17;25.45;;;11.27;;
42666;SDS011;28280;49.646;14.130;2023-03-01T23:58:39;22.15;;;11.43;;
